createdAt,value
2018-09-27T00:03:18.125Z,3
2018-09-27T00:08:20.600Z,2
2018-09-27T00:13:22.995Z,1
2018-09-27T00:18:25.458Z,1
2018-09-27T00:23:27.945Z,1
2018-09-27T00:28:30.948Z,4
2018-09-27T00:33:32.748Z,3
2018-09-27T00:38:35.461Z,3
2018-09-27T00:43:37.998Z,2
2018-09-27T00:48:40.198Z,2
2018-09-27T00:53:42.522Z,3
2018-09-27T00:58:44.939Z,2
2018-09-27T01:03:47.396Z,2
2018-09-27T01:08:49.968Z,2
2018-09-27T01:13:52.671Z,2
2018-09-27T01:18:54.882Z,3
2018-09-27T01:23:57.144Z,2
2018-09-27T01:28:59.659Z,3
2018-09-27T01:34:02.119Z,4
2018-09-27T01:39:04.489Z,3
2018-09-27T01:44:07.627Z,3
2018-09-27T01:49:09.446Z,3
2018-09-27T01:54:11.776Z,3
2018-09-27T01:59:14.347Z,2
2018-09-27T02:04:16.739Z,2
2018-09-27T02:09:19.102Z,3
2018-09-27T02:14:24.461Z,3
2018-09-27T02:19:24.288Z,2
2018-09-27T02:24:26.832Z,2
2018-09-27T02:29:28.855Z,4
2018-09-27T02:34:31.321Z,2
2018-09-27T02:39:33.758Z,1
2018-09-27T02:44:36.401Z,2
2018-09-27T02:49:38.630Z,2
2018-09-27T02:54:41.065Z,2
2018-09-27T02:59:43.503Z,2
2018-09-27T03:04:45.983Z,2
2018-09-27T03:09:48.487Z,1
2018-09-27T03:14:50.980Z,1
2018-09-27T03:19:53.271Z,4
2018-09-27T03:24:55.715Z,3
2018-09-27T03:29:58.153Z,4
2018-09-27T03:35:00.767Z,1
2018-09-27T03:40:03.082Z,11
2018-09-27T03:45:05.604Z,17
2018-09-27T03:50:07.939Z,5
2018-09-27T03:55:10.417Z,8
2018-09-27T04:00:13.196Z,9
2018-09-27T04:05:15.260Z,28
2018-09-27T04:10:18.482Z,57
2018-09-27T04:15:20.154Z,87
2018-09-27T04:20:22.584Z,33
2018-09-27T04:25:30.011Z,47
2018-09-27T04:30:27.491Z,28
2018-09-27T04:35:30.057Z,5
2018-09-27T04:40:32.521Z,24
2018-09-27T04:45:34.847Z,29
2018-09-27T04:50:37.250Z,12
2018-09-27T04:55:39.673Z,13
2018-09-27T05:00:42.097Z,19
2018-09-27T05:05:44.530Z,26
2018-09-27T05:10:47.006Z,3
2018-09-27T05:15:49.507Z,5
2018-09-27T05:20:51.886Z,35
2018-09-27T05:25:54.303Z,28
2018-09-27T05:30:56.800Z,30
2018-09-27T05:35:59.188Z,8
2018-09-27T05:41:01.635Z,16
2018-09-27T05:46:04.082Z,13
2018-09-27T05:51:06.508Z,43
2018-09-27T05:56:08.942Z,23
2018-09-27T06:01:11.780Z,29
2018-09-27T06:06:13.945Z,17
2018-09-27T06:11:16.541Z,24
2018-09-27T06:16:18.876Z,55
2018-09-27T06:21:21.487Z,28
2018-09-27T06:26:23.615Z,45
2018-09-27T06:31:26.170Z,24
2018-09-27T06:36:28.497Z,18
2018-09-27T06:41:30.969Z,25
2018-09-27T06:46:33.328Z,11
2018-09-27T06:51:35.764Z,16
2018-09-27T06:56:39.090Z,15
2018-09-27T07:01:40.699Z,18
2018-09-27T07:06:43.464Z,37
2018-09-27T07:11:45.631Z,21
2018-09-27T07:16:48.162Z,33
2018-09-27T07:21:50.502Z,12
2018-09-27T07:26:52.957Z,8
2018-09-27T07:31:55.295Z,13
2018-09-27T07:36:57.737Z,12
2018-09-27T07:42:00.186Z,11
2018-09-27T07:47:02.635Z,9
2018-09-27T07:52:05.116Z,10
2018-09-27T07:57:07.519Z,14
2018-09-27T08:02:10.127Z,11
2018-09-27T08:07:12.437Z,5
2018-09-27T08:12:14.802Z,5
2018-09-27T08:17:17.622Z,7
2018-09-27T08:22:19.822Z,7
2018-09-27T08:27:22.182Z,9
2018-09-27T08:32:24.668Z,7
2018-09-27T08:37:27.214Z,11
2018-09-27T08:47:31.947Z,11
2018-09-27T08:52:34.354Z,8
2018-09-27T08:57:36.865Z,5
2018-09-27T09:02:39.276Z,4
2018-09-27T09:07:41.820Z,8
2018-09-27T09:12:44.099Z,5
2018-09-27T09:17:46.610Z,13
2018-09-27T09:22:49.062Z,19
2018-09-27T09:27:51.653Z,7
2018-09-27T09:32:53.903Z,6
2018-09-27T09:37:56.362Z,6
2018-09-27T09:42:58.772Z,3
2018-09-27T09:48:01.224Z,4
2018-09-27T09:53:03.705Z,5
2018-09-27T09:58:06.270Z,7
2018-09-27T10:03:08.575Z,4
2018-09-27T10:08:10.942Z,2
2018-09-27T10:13:13.435Z,15
2018-09-27T10:18:16.241Z,6
2018-09-27T10:23:18.314Z,3
2018-09-27T10:28:20.804Z,3
2018-09-27T10:33:23.166Z,1
2018-09-27T10:38:25.714Z,3
2018-09-27T10:43:28.058Z,2
2018-09-27T10:48:30.562Z,1
2018-09-27T10:53:32.917Z,20
2018-09-27T10:58:35.356Z,25
2018-09-27T11:03:37.859Z,1
2018-09-27T11:08:40.325Z,5
2018-09-27T11:13:42.735Z,7
2018-09-27T11:18:45.205Z,6
2018-09-27T11:23:47.618Z,6
2018-09-27T11:28:50.147Z,4
2018-09-27T11:33:52.521Z,1
2018-09-27T11:38:55.302Z,4
2018-09-27T11:43:57.537Z,4
2018-09-27T11:48:59.809Z,1
2018-09-27T11:54:02.276Z,3
2018-09-27T11:59:04.755Z,4
2018-09-27T12:04:07.197Z,5
2018-09-27T12:09:10.009Z,7
2018-09-27T12:14:13.669Z,4
2018-09-27T12:19:14.761Z,10
2018-09-27T12:24:16.924Z,5
2018-09-27T12:29:19.386Z,1
2018-09-27T12:34:21.778Z,8
2018-09-27T12:39:24.243Z,5
2018-09-27T12:49:29.112Z,3
2018-09-27T12:54:31.519Z,4
2018-09-27T12:59:33.930Z,3
2018-09-27T13:04:36.565Z,4
2018-09-27T13:09:39.138Z,2
2018-09-27T13:14:47.398Z,11
2018-09-27T13:19:43.763Z,32
2018-09-27T13:24:46.167Z,5
2018-09-27T13:29:48.612Z,3
2018-09-27T13:34:51.223Z,16
2018-09-27T13:39:53.606Z,3
2018-09-27T13:44:56.035Z,3
2018-09-27T13:49:58.402Z,3
2018-09-27T13:55:00.871Z,22
2018-09-27T14:00:03.278Z,8
2018-09-27T14:05:05.752Z,2
2018-09-27T14:10:08.158Z,1
2018-09-27T14:15:10.681Z,3
2018-09-27T14:20:13.093Z,3
2018-09-27T14:25:15.475Z,2
2018-09-27T14:30:17.944Z,5
2018-09-27T14:35:20.385Z,1
2018-09-27T14:40:22.816Z,7
2018-09-27T14:45:25.298Z,4
2018-09-27T14:50:27.712Z,3
2018-09-27T14:55:30.135Z,3
2018-09-27T15:00:32.667Z,0
2018-09-27T15:05:35.067Z,2
2018-09-27T15:10:37.551Z,2
2018-09-27T15:15:39.910Z,2
2018-09-27T15:20:42.665Z,13
2018-09-27T15:25:44.851Z,21
2018-09-27T15:30:47.268Z,7
2018-09-27T15:35:49.726Z,3
2018-09-27T15:40:52.410Z,5
2018-09-27T15:45:54.599Z,7
2018-09-27T15:50:57.074Z,2
2018-09-27T15:55:59.517Z,16
2018-09-27T16:01:02.050Z,11
2018-09-27T16:06:04.356Z,5
2018-09-27T16:11:07.330Z,5
2018-09-27T16:16:09.249Z,7
2018-09-27T16:21:11.705Z,6
2018-09-27T16:26:14.107Z,2
2018-09-27T16:31:17.121Z,9
2018-09-27T16:36:18.990Z,4
2018-09-27T16:41:21.458Z,8
2018-09-27T16:46:23.922Z,4
2018-09-27T16:51:26.322Z,6
2018-09-27T16:56:28.792Z,2
2018-09-27T17:01:31.183Z,8
2018-09-27T17:06:33.654Z,10
2018-09-27T17:11:36.157Z,5
2018-09-27T17:16:38.792Z,6
2018-09-27T17:21:41.079Z,1
2018-09-27T17:26:43.451Z,1
2018-09-27T17:31:45.957Z,1
2018-09-27T17:36:48.383Z,0
2018-09-27T17:41:50.767Z,1
2018-09-27T17:46:53.248Z,3
2018-09-27T17:51:55.649Z,1
2018-09-27T17:56:58.231Z,2
2018-09-27T18:02:00.478Z,2
2018-09-27T18:07:02.919Z,2
2018-09-27T18:12:05.389Z,3
2018-09-27T18:17:07.850Z,3
2018-09-27T18:22:10.306Z,2
2018-09-27T18:27:12.727Z,3
2018-09-27T18:32:15.256Z,2
2018-09-27T18:37:17.594Z,3
2018-09-27T18:42:20.055Z,4
2018-09-27T18:47:22.435Z,3
2018-09-27T18:52:24.901Z,2
2018-09-27T18:57:27.339Z,2
2018-09-27T19:02:29.795Z,2
2018-09-27T19:07:32.214Z,2
2018-09-27T19:12:34.903Z,3
2018-09-27T19:17:37.257Z,2
2018-09-27T19:22:39.590Z,2
2018-09-27T19:27:42.066Z,2
2018-09-27T19:32:44.499Z,2
2018-09-27T19:37:46.873Z,1
2018-09-27T19:42:49.406Z,1
2018-09-27T19:47:51.741Z,3
2018-09-27T19:52:54.194Z,2
2018-09-27T19:57:56.685Z,3
2018-09-27T20:02:59.194Z,3
2018-09-27T20:08:01.587Z,2
2018-09-27T20:13:04.095Z,2
2018-09-27T20:18:06.425Z,2
2018-09-27T20:23:08.908Z,2
2018-09-27T20:28:11.454Z,1
2018-09-27T20:33:13.709Z,2
2018-09-27T20:38:16.224Z,3
2018-09-27T20:43:18.618Z,2
2018-09-27T20:48:21.188Z,2
2018-09-27T20:53:23.490Z,3
2018-09-27T20:58:26.227Z,5
2018-09-27T21:03:28.404Z,2
2018-09-27T21:13:33.236Z,2
2018-09-27T21:18:35.717Z,5
2018-09-27T21:23:38.099Z,2
2018-09-27T21:28:40.554Z,2
2018-09-27T21:33:43.000Z,2
2018-09-27T21:38:45.509Z,3
2018-09-27T21:43:47.854Z,4
2018-09-27T21:48:50.408Z,5
2018-09-27T21:53:52.821Z,4
2018-09-27T21:58:55.180Z,2
2018-09-27T22:03:57.660Z,2
2018-09-27T22:09:00.214Z,3
2018-09-27T22:14:02.847Z,1
2018-09-27T22:19:04.996Z,5
2018-09-27T22:24:07.430Z,6
2018-09-27T22:29:09.913Z,3
2018-09-27T22:34:12.334Z,4
2018-09-27T22:39:14.744Z,3
2018-09-27T22:44:17.767Z,2
2018-09-27T22:49:19.615Z,3
2018-09-27T22:54:22.207Z,2
2018-09-27T22:59:24.563Z,2
2018-09-27T23:04:27.178Z,4
2018-09-27T23:09:29.341Z,2
2018-09-27T23:14:32.008Z,3
2018-09-27T23:19:34.367Z,3
2018-09-27T23:24:36.732Z,2
2018-09-27T23:29:39.314Z,4
2018-09-27T23:34:41.604Z,4
2018-09-27T23:39:44.075Z,5
2018-09-27T23:44:46.473Z,3
2018-09-27T23:49:48.861Z,2
2018-09-27T23:54:51.344Z,2
2018-09-27T23:59:53.862Z,4
